sensor_id;sensor_type;location;lat;lon;timestamp;pressure;altitude;pressure_sealevel;temperature;humidity
58102;BME280;52034;51.926;6.320;2022-12-07T00:00:34;101719.97;;;3.34;98.78
58102;BME280;52034;51.926;6.320;2022-12-07T00:01:39;101712.75;;;3.42;98.57
58102;BME280;52034;51.926;6.320;2022-12-07T00:02:40;101719.19;;;3.35;98.39
58102;BME280;52034;51.926;6.320;2022-12-07T00:03:42;101707.66;;;3.30;98.54
58102;BME280;52034;51.926;6.320;2022-12-07T00:04:43;101714.81;;;3.34;98.40
58102;BME280;52034;51.926;6.320;2022-12-07T00:05:43;101712.22;;;3.34;98.40
58102;BME280;52034;51.926;6.320;2022-12-07T00:06:45;101712.38;;;3.36;98.36
58102;BME280;52034;51.926;6.320;2022-12-07T00:07:46;101715.72;;;3.35;98.75
58102;BME280;52034;51.926;6.320;2022-12-07T00:08:47;101711.34;;;3.34;98.47
58102;BME280;52034;51.926;6.320;2022-12-07T00:09:48;101702.81;;;3.35;98.32
58102;BME280;52034;51.926;6.320;2022-12-07T00:10:48;101706.19;;;3.34;98.43
58102;BME280;52034;51.926;6.320;2022-12-07T00:11:50;101699.22;;;3.33;98.59
58102;BME280;52034;51.926;6.320;2022-12-07T00:12:51;101704.28;;;3.31;98.39
58102;BME280;52034;51.926;6.320;2022-12-07T00:13:56;101701.13;;;3.35;98.59
58102;BME280;52034;51.926;6.320;2022-12-07T00:14:57;101699.53;;;3.38;98.47
58102;BME280;52034;51.926;6.320;2022-12-07T00:16:06;101701.44;;;3.40;98.37
58102;BME280;52034;51.926;6.320;2022-12-07T00:17:06;101702.13;;;3.38;98.61
58102;BME280;52034;51.926;6.320;2022-12-07T00:18:06;101693.78;;;3.42;98.28
58102;BME280;52034;51.926;6.320;2022-12-07T00:19:07;101695.34;;;3.40;98.50
58102;BME280;52034;51.926;6.320;2022-12-07T00:20:07;101697.47;;;3.45;98.46
58102;BME280;52034;51.926;6.320;2022-12-07T00:21:21;101700.53;;;3.40;97.99
58102;BME280;52034;51.926;6.320;2022-12-07T00:22:21;101701.13;;;3.35;98.31
58102;BME280;52034;51.926;6.320;2022-12-07T00:23:22;101692.97;;;3.29;98.35
58102;BME280;52034;51.926;6.320;2022-12-07T00:24:22;101693.75;;;3.28;98.84
58102;BME280;52034;51.926;6.320;2022-12-07T00:25:22;101686.59;;;3.24;98.06
58102;BME280;52034;51.926;6.320;2022-12-07T00:26:25;101684.75;;;3.35;98.56
58102;BME280;52034;51.926;6.320;2022-12-07T00:27:27;101689.19;;;3.24;98.31
58102;BME280;52034;51.926;6.320;2022-12-07T00:28:27;101683.00;;;3.22;98.24
58102;BME280;52034;51.926;6.320;2022-12-07T00:29:27;101685.31;;;3.17;97.91
58102;BME280;52034;51.926;6.320;2022-12-07T00:30:28;101688.34;;;3.12;98.02
58102;BME280;52034;51.926;6.320;2022-12-07T00:31:32;101681.78;;;3.04;97.92
58102;BME280;52034;51.926;6.320;2022-12-07T00:32:35;101678.50;;;3.06;98.02
58102;BME280;52034;51.926;6.320;2022-12-07T00:33:36;101667.41;;;3.07;98.06
58102;BME280;52034;51.926;6.320;2022-12-07T00:34:36;101673.03;;;3.01;98.12
58102;BME280;52034;51.926;6.320;2022-12-07T00:35:37;101687.03;;;3.05;98.61
58102;BME280;52034;51.926;6.320;2022-12-07T00:36:37;101672.13;;;3.01;98.18
58102;BME280;52034;51.926;6.320;2022-12-07T00:37:37;101677.69;;;2.94;98.14
58102;BME280;52034;51.926;6.320;2022-12-07T00:38:38;101681.13;;;2.94;97.91
58102;BME280;52034;51.926;6.320;2022-12-07T00:39:39;101672.47;;;2.80;97.97
58102;BME280;52034;51.926;6.320;2022-12-07T00:40:39;101678.06;;;2.87;98.13
58102;BME280;52034;51.926;6.320;2022-12-07T00:41:39;101676.94;;;2.83;97.72
58102;BME280;52034;51.926;6.320;2022-12-07T00:42:40;101676.72;;;2.80;98.40
58102;BME280;52034;51.926;6.320;2022-12-07T00:43:41;101673.94;;;2.77;98.77
58102;BME280;52034;51.926;6.320;2022-12-07T00:44:42;101684.09;;;2.87;98.43
58102;BME280;52034;51.926;6.320;2022-12-07T00:45:42;101676.56;;;2.90;98.37
58102;BME280;52034;51.926;6.320;2022-12-07T00:46:43;101678.94;;;2.87;98.67
58102;BME280;52034;51.926;6.320;2022-12-07T00:47:45;101673.41;;;2.94;98.18
58102;BME280;52034;51.926;6.320;2022-12-07T00:48:46;101670.41;;;2.88;98.11
58102;BME280;52034;51.926;6.320;2022-12-07T00:49:46;101679.94;;;2.89;98.08
58102;BME280;52034;51.926;6.320;2022-12-07T00:50:47;101676.66;;;2.92;98.19
58102;BME280;52034;51.926;6.320;2022-12-07T00:51:49;101679.16;;;2.90;98.02
58102;BME280;52034;51.926;6.320;2022-12-07T00:52:49;101677.06;;;2.84;97.72
58102;BME280;52034;51.926;6.320;2022-12-07T00:53:50;101680.13;;;2.79;97.79
58102;BME280;52034;51.926;6.320;2022-12-07T00:54:50;101678.13;;;2.75;97.90
58102;BME280;52034;51.926;6.320;2022-12-07T00:55:50;101678.69;;;2.71;97.36
58102;BME280;52034;51.926;6.320;2022-12-07T00:56:52;101685.97;;;2.76;97.70
58102;BME280;52034;51.926;6.320;2022-12-07T00:57:52;101679.00;;;2.75;98.08
58102;BME280;52034;51.926;6.320;2022-12-07T00:58:55;101677.78;;;2.70;97.70
58102;BME280;52034;51.926;6.320;2022-12-07T00:59:56;101681.38;;;2.72;97.67
58102;BME280;52034;51.926;6.320;2022-12-07T01:01:00;101679.03;;;2.63;97.15
58102;BME280;52034;51.926;6.320;2022-12-07T01:02:01;101680.63;;;2.61;97.67
58102;BME280;52034;51.926;6.320;2022-12-07T01:03:01;101676.09;;;2.45;97.21
58102;BME280;52034;51.926;6.320;2022-12-07T01:04:02;101673.53;;;2.33;97.50
58102;BME280;52034;51.926;6.320;2022-12-07T01:05:03;101675.56;;;2.38;97.55
58102;BME280;52034;51.926;6.320;2022-12-07T01:06:04;101670.69;;;2.42;97.73
58102;BME280;52034;51.926;6.320;2022-12-07T01:07:04;101675.06;;;2.43;97.93
58102;BME280;52034;51.926;6.320;2022-12-07T01:08:05;101666.00;;;2.37;97.61
58102;BME280;52034;51.926;6.320;2022-12-07T01:09:06;101664.88;;;2.45;97.62
58102;BME280;52034;51.926;6.320;2022-12-07T01:10:06;101673.25;;;2.54;97.76
58102;BME280;52034;51.926;6.320;2022-12-07T01:11:08;101675.03;;;2.55;97.67
58102;BME280;52034;51.926;6.320;2022-12-07T01:12:09;101664.88;;;2.45;97.66
58102;BME280;52034;51.926;6.320;2022-12-07T01:13:09;101667.03;;;2.39;97.39
58102;BME280;52034;51.926;6.320;2022-12-07T01:14:10;101668.50;;;2.35;97.44
58102;BME280;52034;51.926;6.320;2022-12-07T01:15:10;101663.66;;;2.28;98.12
58102;BME280;52034;51.926;6.320;2022-12-07T01:16:13;101671.31;;;2.26;97.53
58102;BME280;52034;51.926;6.320;2022-12-07T01:17:14;101670.41;;;2.26;97.81
58102;BME280;52034;51.926;6.320;2022-12-07T01:18:15;101673.97;;;2.28;97.95
58102;BME280;52034;51.926;6.320;2022-12-07T01:19:15;101673.78;;;2.25;97.60
58102;BME280;52034;51.926;6.320;2022-12-07T01:20:15;101682.28;;;2.24;97.56
58102;BME280;52034;51.926;6.320;2022-12-07T01:21:24;101678.16;;;2.26;98.63
58102;BME280;52034;51.926;6.320;2022-12-07T01:22:25;101677.94;;;2.23;97.93
58102;BME280;52034;51.926;6.320;2022-12-07T01:23:26;101670.75;;;2.18;97.82
58102;BME280;52034;51.926;6.320;2022-12-07T01:24:26;101675.81;;;2.17;98.02
58102;BME280;52034;51.926;6.320;2022-12-07T01:25:27;101673.47;;;2.20;97.95
58102;BME280;52034;51.926;6.320;2022-12-07T01:26:27;101677.41;;;2.15;97.95
58102;BME280;52034;51.926;6.320;2022-12-07T01:27:27;101687.44;;;2.24;97.94
58102;BME280;52034;51.926;6.320;2022-12-07T01:28:28;101675.22;;;2.21;97.98
58102;BME280;52034;51.926;6.320;2022-12-07T01:29:29;101686.66;;;2.25;98.11
58102;BME280;52034;51.926;6.320;2022-12-07T01:30:29;101677.38;;;2.27;97.85
58102;BME280;52034;51.926;6.320;2022-12-07T01:31:30;101685.63;;;2.34;98.00
58102;BME280;52034;51.926;6.320;2022-12-07T01:32:30;101685.88;;;2.38;97.73
58102;BME280;52034;51.926;6.320;2022-12-07T01:33:33;101684.28;;;2.40;98.22
58102;BME280;52034;51.926;6.320;2022-12-07T01:34:34;101681.03;;;2.30;97.93
58102;BME280;52034;51.926;6.320;2022-12-07T01:35:34;101683.41;;;2.27;98.04
58102;BME280;52034;51.926;6.320;2022-12-07T01:36:35;101682.88;;;2.20;97.61
58102;BME280;52034;51.926;6.320;2022-12-07T01:37:37;101688.78;;;2.18;97.35
58102;BME280;52034;51.926;6.320;2022-12-07T01:38:38;101685.69;;;2.11;97.77
58102;BME280;52034;51.926;6.320;2022-12-07T01:39:38;101695.91;;;2.09;97.39
58102;BME280;52034;51.926;6.320;2022-12-07T01:40:38;101680.97;;;2.05;97.56
58102;BME280;52034;51.926;6.320;2022-12-07T01:41:40;101695.19;;;2.12;98.40
58102;BME280;52034;51.926;6.320;2022-12-07T01:42:42;101685.69;;;2.11;97.80
58102;BME280;52034;51.926;6.320;2022-12-07T01:46:17;101687.81;;;2.16;98.52
58102;BME280;52034;51.926;6.320;2022-12-07T01:47:17;101685.78;;;2.24;98.42
58102;BME280;52034;51.926;6.320;2022-12-07T01:48:21;101687.88;;;2.42;98.02
58102;BME280;52034;51.926;6.320;2022-12-07T01:50:27;101684.13;;;2.50;98.34
58102;BME280;52034;51.926;6.320;2022-12-07T01:51:29;101675.97;;;2.44;98.07
58102;BME280;52034;51.926;6.320;2022-12-07T01:52:31;101672.41;;;2.42;98.35
58102;BME280;52034;51.926;6.320;2022-12-07T01:53:35;101679.13;;;2.40;97.83
58102;BME280;52034;51.926;6.320;2022-12-07T01:54:36;101681.47;;;2.37;97.76
58102;BME280;52034;51.926;6.320;2022-12-07T01:55:40;101683.75;;;2.32;98.08
58102;BME280;52034;51.926;6.320;2022-12-07T01:56:46;101678.81;;;2.35;98.16
58102;BME280;52034;51.926;6.320;2022-12-07T01:57:51;101678.91;;;2.37;98.17
58102;BME280;52034;51.926;6.320;2022-12-07T01:58:54;101673.97;;;2.28;97.81
58102;BME280;52034;51.926;6.320;2022-12-07T01:59:56;101650.97;;;2.06;98.24
58102;BME280;52034;51.926;6.320;2022-12-07T02:00:57;101676.47;;;2.26;98.28
58102;BME280;52034;51.926;6.320;2022-12-07T02:01:58;101679.59;;;2.34;97.97
58102;BME280;52034;51.926;6.320;2022-12-07T02:03:21;101677.09;;;2.36;98.10
58102;BME280;52034;51.926;6.320;2022-12-07T02:04:24;101675.56;;;2.26;98.52
58102;BME280;52034;51.926;6.320;2022-12-07T02:05:25;101678.25;;;2.27;98.25
58102;BME280;52034;51.926;6.320;2022-12-07T02:06:26;101676.81;;;2.19;98.16
58102;BME280;52034;51.926;6.320;2022-12-07T02:07:27;101674.81;;;2.15;98.01
58102;BME280;52034;51.926;6.320;2022-12-07T02:08:28;101675.38;;;2.11;97.70
58102;BME280;52034;51.926;6.320;2022-12-07T02:09:29;101671.13;;;2.11;97.97
58102;BME280;52034;51.926;6.320;2022-12-07T02:10:31;101673.13;;;2.04;98.01
58102;BME280;52034;51.926;6.320;2022-12-07T02:11:32;101671.59;;;2.06;97.75
58102;BME280;52034;51.926;6.320;2022-12-07T02:12:32;101672.72;;;1.97;97.94
58102;BME280;52034;51.926;6.320;2022-12-07T02:13:35;101667.97;;;2.04;98.43
58102;BME280;52034;51.926;6.320;2022-12-07T02:14:36;101666.44;;;2.06;98.01
58102;BME280;52034;51.926;6.320;2022-12-07T02:17:14;101667.97;;;2.04;98.16
58102;BME280;52034;51.926;6.320;2022-12-07T02:18:32;101671.34;;;2.03;98.71
58102;BME280;52034;51.926;6.320;2022-12-07T02:22:24;101666.06;;;2.13;98.46
58102;BME280;52034;51.926;6.320;2022-12-07T02:23:38;101678.28;;;2.15;98.25
58102;BME280;52034;51.926;6.320;2022-12-07T02:24:52;101674.03;;;2.16;97.94
58102;BME280;52034;51.926;6.320;2022-12-07T02:26:09;101675.81;;;2.17;98.28
58102;BME280;52034;51.926;6.320;2022-12-07T02:27:43;101678.25;;;2.27;98.29
58102;BME280;52034;51.926;6.320;2022-12-07T02:29:10;101676.47;;;2.26;98.24
58102;BME280;52034;51.926;6.320;2022-12-07T02:30:14;101672.22;;;2.27;97.86
58102;BME280;52034;51.926;6.320;2022-12-07T02:31:19;101678.69;;;2.33;97.70
58102;BME280;52034;51.926;6.320;2022-12-07T02:32:26;101673.31;;;2.30;97.77
58102;BME280;52034;51.926;6.320;2022-12-07T02:33:32;101672.88;;;2.36;97.85
58102;BME280;52034;51.926;6.320;2022-12-07T02:34:48;101666.47;;;2.43;97.99
58102;BME280;52034;51.926;6.320;2022-12-07T02:36:05;101671.03;;;2.47;98.04
58102;BME280;52034;51.926;6.320;2022-12-07T02:37:17;101675.72;;;2.53;97.54
58102;BME280;52034;51.926;6.320;2022-12-07T02:38:28;101676.97;;;2.46;97.67
58102;BME280;52034;51.926;6.320;2022-12-07T02:39:44;101674.97;;;2.42;97.96
58102;BME280;52034;51.926;6.320;2022-12-07T02:41:04;101674.88;;;2.40;97.84
58102;BME280;52034;51.926;6.320;2022-12-07T02:42:14;101681.84;;;2.29;97.38
58102;BME280;52034;51.926;6.320;2022-12-07T02:43:37;101678.34;;;2.29;97.73
58102;BME280;52034;51.926;6.320;2022-12-07T02:44:39;101676.94;;;2.21;97.99
58102;BME280;52034;51.926;6.320;2022-12-07T02:45:41;101676.94;;;2.21;98.13
58102;BME280;52034;51.926;6.320;2022-12-07T02:46:44;101669.00;;;2.17;98.13
58102;BME280;52034;51.926;6.320;2022-12-07T02:47:48;101665.28;;;2.14;98.14
58102;BME280;52034;51.926;6.320;2022-12-07T02:48:51;101675.13;;;2.20;98.00
58102;BME280;52034;51.926;6.320;2022-12-07T02:49:53;101673.22;;;2.17;98.09
58102;BME280;52034;51.926;6.320;2022-12-07T02:50:54;101673.69;;;2.11;97.92
58102;BME280;52034;51.926;6.320;2022-12-07T02:51:55;101670.88;;;2.20;97.68
58102;BME280;52034;51.926;6.320;2022-12-07T02:52:55;101671.56;;;2.17;98.56
58102;BME280;52034;51.926;6.320;2022-12-07T02:53:56;101678.72;;;2.22;97.71
58102;BME280;52034;51.926;6.320;2022-12-07T02:54:56;101670.75;;;2.18;98.15
58102;BME280;52034;51.926;6.320;2022-12-07T02:55:57;101668.16;;;2.18;97.22
58102;BME280;52034;51.926;6.320;2022-12-07T02:59:13;101676.63;;;2.16;98.47
58102;BME280;52034;51.926;6.320;2022-12-07T03:00:03;101674.25;;;2.19;97.92
58102;BME280;52034;51.926;6.320;2022-12-07T03:03:00;101672.94;;;2.00;97.45
58102;BME280;52034;51.926;6.320;2022-12-07T03:05:54;101676.72;;;2.06;97.56
58102;BME280;52034;51.926;6.320;2022-12-07T03:07:06;101675.97;;;2.07;97.86
58102;BME280;52034;51.926;6.320;2022-12-07T03:10:01;101670.00;;;2.08;97.98
58102;BME280;52034;51.926;6.320;2022-12-07T03:11:03;101676.06;;;2.08;97.51
58102;BME280;52034;51.926;6.320;2022-12-07T03:12:17;101674.38;;;2.09;97.98
58102;BME280;52034;51.926;6.320;2022-12-07T03:14:29;101677.72;;;2.08;97.52
58102;BME280;52034;51.926;6.320;2022-12-07T03:16:44;101676.25;;;2.23;97.74
58102;BME280;52034;51.926;6.320;2022-12-07T03:17:49;101676.25;;;2.23;97.56
58102;BME280;52034;51.926;6.320;2022-12-07T03:19:08;101675.38;;;2.23;97.58
58102;BME280;52034;51.926;6.320;2022-12-07T03:20:11;101669.06;;;2.31;97.86
58102;BME280;52034;51.926;6.320;2022-12-07T03:21:18;101675.22;;;2.33;97.06
58102;BME280;52034;51.926;6.320;2022-12-07T03:22:19;101675.22;;;2.33;97.65
58102;BME280;52034;51.926;6.320;2022-12-07T03:23:22;101676.91;;;2.32;97.37
58102;BME280;52034;51.926;6.320;2022-12-07T03:24:27;101677.09;;;2.36;97.60
58102;BME280;52034;51.926;6.320;2022-12-07T03:25:28;101673.53;;;2.33;97.07
58102;BME280;52034;51.926;6.320;2022-12-07T03:26:36;101671.16;;;2.37;97.59
58102;BME280;52034;51.926;6.320;2022-12-07T03:27:57;101664.31;;;2.37;97.78
58102;BME280;52034;51.926;6.320;2022-12-07T03:29:04;101672.59;;;2.45;97.17
58102;BME280;52034;51.926;6.320;2022-12-07T03:30:13;101665.88;;;2.47;97.10
58102;BME280;52034;51.926;6.320;2022-12-07T03:31:36;101664.38;;;2.50;97.12
58102;BME280;52034;51.926;6.320;2022-12-07T03:32:44;101671.88;;;2.59;96.83
58102;BME280;52034;51.926;6.320;2022-12-07T03:33:54;101669.69;;;2.52;97.23
58102;BME280;52034;51.926;6.320;2022-12-07T03:35:03;101666.97;;;2.50;97.40
58102;BME280;52034;51.926;6.320;2022-12-07T03:36:10;101669.88;;;2.55;97.19
58102;BME280;52034;51.926;6.320;2022-12-07T03:37:34;101670.66;;;2.54;97.44
58102;BME280;52034;51.926;6.320;2022-12-07T03:38:42;101668.66;;;2.50;97.00
58102;BME280;52034;51.926;6.320;2022-12-07T03:41:23;101672.03;;;2.49;97.38
58102;BME280;52034;51.926;6.320;2022-12-07T03:42:24;101664.09;;;2.46;97.65
58102;BME280;52034;51.926;6.320;2022-12-07T03:43:25;101658.72;;;2.43;97.12
58102;BME280;52034;51.926;6.320;2022-12-07T03:44:26;101660.47;;;2.44;97.60
58102;BME280;52034;51.926;6.320;2022-12-07T03:45:44;101658.59;;;2.41;97.19
58102;BME280;52034;51.926;6.320;2022-12-07T03:47:17;101664.19;;;2.47;97.15
58102;BME280;52034;51.926;6.320;2022-12-07T03:49:04;101664.19;;;2.47;96.55
58102;BME280;52034;51.926;6.320;2022-12-07T03:49:58;101665.34;;;2.39;96.80
58102;BME280;52034;51.926;6.320;2022-12-07T03:53:22;101662.38;;;2.46;96.93
58102;BME280;52034;51.926;6.320;2022-12-07T03:54:30;101666.66;;;2.46;96.92
58102;BME280;52034;51.926;6.320;2022-12-07T03:55:35;101660.06;;;2.38;97.23
58102;BME280;52034;51.926;6.320;2022-12-07T03:56:38;101663.53;;;2.38;97.23
58102;BME280;52034;51.926;6.320;2022-12-07T03:57:39;101656.47;;;2.36;96.96
58102;BME280;52034;51.926;6.320;2022-12-07T03:58:42;101665.22;;;2.38;96.59
58102;BME280;52034;51.926;6.320;2022-12-07T03:59:43;101656.47;;;2.36;97.15
58102;BME280;52034;51.926;6.320;2022-12-07T04:00:44;101660.06;;;2.38;97.02
58102;BME280;52034;51.926;6.320;2022-12-07T04:01:51;101655.69;;;2.37;97.03
58102;BME280;52034;51.926;6.320;2022-12-07T04:02:53;101656.00;;;2.41;96.70
58102;BME280;52034;51.926;6.320;2022-12-07T04:03:53;101658.94;;;2.46;96.79
58102;BME280;52034;51.926;6.320;2022-12-07T04:04:55;101655.31;;;2.44;96.83
58102;BME280;52034;51.926;6.320;2022-12-07T04:05:55;101648.41;;;2.43;96.85
58102;BME280;52034;51.926;6.320;2022-12-07T04:06:56;101649.28;;;2.43;96.65
58102;BME280;52034;51.926;6.320;2022-12-07T04:07:57;101641.66;;;2.45;96.67
58102;BME280;52034;51.926;6.320;2022-12-07T04:08:57;101652.41;;;2.51;96.52
58102;BME280;52034;51.926;6.320;2022-12-07T04:09:57;101655.97;;;2.53;96.51
58102;BME280;52034;51.926;6.320;2022-12-07T04:10:58;101659.22;;;2.50;96.67
58102;BME280;52034;51.926;6.320;2022-12-07T04:11:58;101657.38;;;2.48;96.54
58102;BME280;52034;51.926;6.320;2022-12-07T04:12:58;101659.69;;;2.45;96.92
58102;BME280;52034;51.926;6.320;2022-12-07T04:13:59;101648.84;;;2.37;96.76
58102;BME280;52034;51.926;6.320;2022-12-07T04:15:18;101662.28;;;2.45;96.92
58102;BME280;52034;51.926;6.320;2022-12-07T04:16:18;101661.41;;;2.44;97.01
58102;BME280;52034;51.926;6.320;2022-12-07T04:17:18;101664.09;;;2.46;97.43
58102;BME280;52034;51.926;6.320;2022-12-07T04:18:19;101658.34;;;2.50;97.23
58102;BME280;52034;51.926;6.320;2022-12-07T04:19:22;101663.59;;;2.51;96.75
58102;BME280;52034;51.926;6.320;2022-12-07T04:20:22;101663.13;;;2.57;96.95
58102;BME280;52034;51.926;6.320;2022-12-07T04:21:23;101656.59;;;2.62;96.54
58102;BME280;52034;51.926;6.320;2022-12-07T04:22:23;101650.56;;;2.62;96.40
58102;BME280;52034;51.926;6.320;2022-12-07T04:23:24;101654.84;;;2.61;96.67
58102;BME280;52034;51.926;6.320;2022-12-07T04:24:24;101659.31;;;2.64;97.08
58102;BME280;52034;51.926;6.320;2022-12-07T04:25:25;101662.34;;;2.58;96.56
58102;BME280;52034;51.926;6.320;2022-12-07T04:26:26;101661.94;;;2.52;96.69
58102;BME280;52034;51.926;6.320;2022-12-07T04:27:26;101653.75;;;2.46;96.69
58102;BME280;52034;51.926;6.320;2022-12-07T04:28:26;101660.94;;;2.50;96.74
58102;BME280;52034;51.926;6.320;2022-12-07T04:29:27;101647.03;;;2.48;96.93
58102;BME280;52034;51.926;6.320;2022-12-07T04:30:28;101659.13;;;2.49;96.95
58102;BME280;52034;51.926;6.320;2022-12-07T04:31:28;101646.03;;;2.46;96.62
58102;BME280;52034;51.926;6.320;2022-12-07T04:32:28;101660.03;;;2.49;96.18
58102;BME280;52034;51.926;6.320;2022-12-07T04:33:28;101661.16;;;2.41;96.62
58102;BME280;52034;51.926;6.320;2022-12-07T04:34:29;101655.13;;;2.41;96.74
58102;BME280;52034;51.926;6.320;2022-12-07T04:35:29;101651.78;;;2.30;96.83
58102;BME280;52034;51.926;6.320;2022-12-07T04:36:30;101655.63;;;2.23;96.65
58102;BME280;52034;51.926;6.320;2022-12-07T04:37:30;101660.00;;;2.24;96.71
58102;BME280;52034;51.926;6.320;2022-12-07T04:38:31;101652.34;;;2.38;97.08
58102;BME280;52034;51.926;6.320;2022-12-07T04:39:32;101645.38;;;2.37;96.76
58102;BME280;52034;51.926;6.320;2022-12-07T04:40:34;101649.75;;;2.38;96.90
58102;BME280;52034;51.926;6.320;2022-12-07T04:41:34;101654.53;;;2.45;96.26
58102;BME280;52034;51.926;6.320;2022-12-07T04:42:34;101645.50;;;2.38;95.73
58102;BME280;52034;51.926;6.320;2022-12-07T04:43:35;101639.13;;;2.21;96.02
58102;BME280;52034;51.926;6.320;2022-12-07T04:44:36;101648.78;;;2.24;96.63
58102;BME280;52034;51.926;6.320;2022-12-07T04:45:36;101646.66;;;2.18;96.65
58102;BME280;52034;51.926;6.320;2022-12-07T04:46:36;101650.13;;;2.18;96.65
58102;BME280;52034;51.926;6.320;2022-12-07T04:47:37;101649.81;;;2.14;96.89
58102;BME280;52034;51.926;6.320;2022-12-07T04:48:37;101651.94;;;2.08;96.62
58102;BME280;52034;51.926;6.320;2022-12-07T04:49:37;101652.63;;;2.05;97.04
58102;BME280;52034;51.926;6.320;2022-12-07T04:50:38;101656.31;;;2.09;96.64
58102;BME280;52034;51.926;6.320;2022-12-07T04:51:38;101663.84;;;2.06;96.84
58102;BME280;52034;51.926;6.320;2022-12-07T04:52:39;101650.63;;;1.89;96.75
58102;BME280;52034;51.926;6.320;2022-12-07T04:53:39;101666.66;;;1.85;96.38
58102;BME280;52034;51.926;6.320;2022-12-07T04:54:40;101654.59;;;1.84;96.92
58102;BME280;52034;51.926;6.320;2022-12-07T04:55:40;101661.19;;;1.92;96.67
58102;BME280;52034;51.926;6.320;2022-12-07T04:56:41;101660.63;;;1.96;97.00
58102;BME280;52034;51.926;6.320;2022-12-07T04:57:41;101658.13;;;2.10;97.45
58102;BME280;52034;51.926;6.320;2022-12-07T04:58:43;101653.63;;;2.19;97.05
58102;BME280;52034;51.926;6.320;2022-12-07T04:59:44;101649.03;;;2.15;96.61
58102;BME280;52034;51.926;6.320;2022-12-07T05:00:44;101649.38;;;2.08;96.12
58102;BME280;52034;51.926;6.320;2022-12-07T05:01:44;101658.59;;;2.04;96.00
58102;BME280;52034;51.926;6.320;2022-12-07T05:02:45;101653.75;;;1.97;96.27
58102;BME280;52034;51.926;6.320;2022-12-07T05:03:45;101656.44;;;1.98;96.79
58102;BME280;52034;51.926;6.320;2022-12-07T05:04:46;101657.09;;;2.08;96.38
58102;BME280;52034;51.926;6.320;2022-12-07T05:05:46;101650.03;;;2.05;96.73
58102;BME280;52034;51.926;6.320;2022-12-07T05:06:46;101652.53;;;2.04;96.54
58102;BME280;52034;51.926;6.320;2022-12-07T05:07:47;101655.88;;;2.03;97.45
58102;BME280;52034;51.926;6.320;2022-12-07T05:08:47;101655.88;;;2.03;96.63
58102;BME280;52034;51.926;6.320;2022-12-07T05:09:47;101647.13;;;2.12;96.36
58102;BME280;52034;51.926;6.320;2022-12-07T05:10:48;101645.09;;;2.32;96.77
58102;BME280;52034;51.926;6.320;2022-12-07T05:11:49;101637.66;;;2.37;96.19
58102;BME280;52034;51.926;6.320;2022-12-07T05:12:49;101643.44;;;2.46;96.28
58102;BME280;52034;51.926;6.320;2022-12-07T05:13:50;101634.97;;;2.35;96.31
58102;BME280;52034;51.926;6.320;2022-12-07T05:14:50;101648.09;;;2.26;95.48
58102;BME280;52034;51.926;6.320;2022-12-07T05:15:50;101644.00;;;2.16;95.76
58102;BME280;52034;51.926;6.320;2022-12-07T05:16:51;101644.53;;;2.24;95.99
58102;BME280;52034;51.926;6.320;2022-12-07T05:17:53;101645.97;;;2.32;95.99
58102;BME280;52034;51.926;6.320;2022-12-07T05:18:54;101643.94;;;2.40;95.45
58102;BME280;52034;51.926;6.320;2022-12-07T05:19:54;101643.50;;;2.22;95.91
58102;BME280;52034;51.926;6.320;2022-12-07T05:20:54;101641.84;;;2.23;96.13
58102;BME280;52034;51.926;6.320;2022-12-07T05:21:55;101652.59;;;2.17;96.43
58102;BME280;52034;51.926;6.320;2022-12-07T05:22:55;101652.28;;;2.12;96.02
58102;BME280;52034;51.926;6.320;2022-12-07T05:23:55;101651.75;;;2.05;96.31
58102;BME280;52034;51.926;6.320;2022-12-07T05:24:56;101652.69;;;1.93;96.23
58102;BME280;52034;51.926;6.320;2022-12-07T05:25:56;101654.44;;;1.94;96.02
58102;BME280;52034;51.926;6.320;2022-12-07T05:26:56;101650.88;;;1.80;96.15
58102;BME280;52034;51.926;6.320;2022-12-07T05:27:57;101653.91;;;1.75;95.24
58102;BME280;52034;51.926;6.320;2022-12-07T05:28:57;101639.81;;;1.70;95.67
58102;BME280;52034;51.926;6.320;2022-12-07T05:29:58;101645.16;;;1.73;95.56
58102;BME280;52034;51.926;6.320;2022-12-07T05:30:58;101654.69;;;1.74;95.57
58102;BME280;52034;51.926;6.320;2022-12-07T05:31:58;101653.91;;;1.75;96.73
58102;BME280;52034;51.926;6.320;2022-12-07T05:32:59;101653.47;;;1.69;96.55
58102;BME280;52034;51.926;6.320;2022-12-07T05:33:59;101641.16;;;1.64;96.52
58102;BME280;52034;51.926;6.320;2022-12-07T05:34:59;101653.47;;;1.69;95.98
58102;BME280;52034;51.926;6.320;2022-12-07T05:36:00;101653.91;;;1.63;95.98
58102;BME280;52034;51.926;6.320;2022-12-07T05:37:05;101651.34;;;1.51;96.25
58102;BME280;52034;51.926;6.320;2022-12-07T05:38:05;101650.69;;;1.65;96.44
58102;BME280;52034;51.926;6.320;2022-12-07T05:39:06;101652.13;;;1.86;96.58
58102;BME280;52034;51.926;6.320;2022-12-07T05:40:08;101649.19;;;1.93;96.16
58102;BME280;52034;51.926;6.320;2022-12-07T05:41:12;101651.84;;;1.94;96.94
58102;BME280;52034;51.926;6.320;2022-12-07T05:42:33;101648.63;;;1.97;97.02
58102;BME280;52034;51.926;6.320;2022-12-07T05:43:33;101651.97;;;1.96;96.46
58102;BME280;52034;51.926;6.320;2022-12-07T05:44:33;101654.53;;;1.96;96.25
58102;BME280;52034;51.926;6.320;2022-12-07T05:45:34;101639.53;;;2.02;96.91
58102;BME280;52034;51.926;6.320;2022-12-07T05:46:34;101644.00;;;2.05;96.69
58102;BME280;52034;51.926;6.320;2022-12-07T05:47:35;101644.47;;;2.11;96.57
58102;BME280;52034;51.926;6.320;2022-12-07T05:48:35;101634.56;;;2.17;95.93
58102;BME280;52034;51.926;6.320;2022-12-07T05:49:36;101643.88;;;2.15;95.94
58102;BME280;52034;51.926;6.320;2022-12-07T05:50:37;101639.75;;;2.05;96.08
58102;BME280;52034;51.926;6.320;2022-12-07T05:51:37;101637.06;;;1.92;96.59
58102;BME280;52034;51.926;6.320;2022-12-07T05:52:37;101645.16;;;1.96;96.05
58102;BME280;52034;51.926;6.320;2022-12-07T05:53:38;101636.63;;;1.97;96.55
58102;BME280;52034;51.926;6.320;2022-12-07T05:54:38;101644.03;;;1.93;96.03
58102;BME280;52034;51.926;6.320;2022-12-07T05:55:39;101641.44;;;1.93;96.20